sensor_id;sensor_type;location;lat;lon;timestamp;P1;durP1;ratioP1;P2;durP2;ratioP2
73954;SDS011;62306;52.516;13.290;2023-01-30T00:01:37;20.23;;;10.15;;
73954;SDS011;62306;52.516;13.290;2023-01-30T00:04:04;19.33;;;10.50;;
73954;SDS011;62306;52.516;13.290;2023-01-30T00:06:31;20.92;;;11.10;;
73954;SDS011;62306;52.516;13.290;2023-01-30T00:08:58;20.38;;;10.70;;
73954;SDS011;62306;52.516;13.290;2023-01-30T00:11:25;22.20;;;11.98;;
73954;SDS011;62306;52.516;13.290;2023-01-30T00:13:55;19.83;;;10.75;;
73954;SDS011;62306;52.516;13.290;2023-01-30T00:16:22;21.30;;;10.65;;
73954;SDS011;62306;52.516;13.290;2023-01-30T00:18:49;23.00;;;12.13;;
73954;SDS011;62306;52.516;13.290;2023-01-30T00:21:16;19.73;;;11.13;;
73954;SDS011;62306;52.516;13.290;2023-01-30T00:23:44;21.77;;;12.50;;
73954;SDS011;62306;52.516;13.290;2023-01-30T00:26:12;23.95;;;11.75;;
73954;SDS011;62306;52.516;13.290;2023-01-30T00:28:39;21.85;;;11.45;;
73954;SDS011;62306;52.516;13.290;2023-01-30T00:31:07;23.52;;;12.13;;
73954;SDS011;62306;52.516;13.290;2023-01-30T00:33:35;25.10;;;12.60;;
73954;SDS011;62306;52.516;13.290;2023-01-30T00:36:03;20.83;;;11.45;;
73954;SDS011;62306;52.516;13.290;2023-01-30T00:38:31;24.50;;;12.13;;
73954;SDS011;62306;52.516;13.290;2023-01-30T00:40:57;22.98;;;10.77;;
73954;SDS011;62306;52.516;13.290;2023-01-30T00:43:24;21.98;;;11.68;;
73954;SDS011;62306;52.516;13.290;2023-01-30T00:46:11;21.48;;;12.23;;
73954;SDS011;62306;52.516;13.290;2023-01-30T00:49:03;21.17;;;11.35;;
73954;SDS011;62306;52.516;13.290;2023-01-30T00:51:30;25.42;;;12.82;;
73954;SDS011;62306;52.516;13.290;2023-01-30T00:53:57;23.65;;;12.38;;
73954;SDS011;62306;52.516;13.290;2023-01-30T00:56:24;21.58;;;12.30;;
73954;SDS011;62306;52.516;13.290;2023-01-30T00:58:51;23.67;;;12.85;;
73954;SDS011;62306;52.516;13.290;2023-01-30T01:01:20;24.38;;;12.93;;
73954;SDS011;62306;52.516;13.290;2023-01-30T01:03:47;22.58;;;12.45;;
73954;SDS011;62306;52.516;13.290;2023-01-30T01:06:14;22.95;;;12.55;;
73954;SDS011;62306;52.516;13.290;2023-01-30T01:08:41;23.58;;;12.10;;
73954;SDS011;62306;52.516;13.290;2023-01-30T01:11:08;26.48;;;13.35;;
73954;SDS011;62306;52.516;13.290;2023-01-30T01:13:35;24.38;;;13.02;;
73954;SDS011;62306;52.516;13.290;2023-01-30T01:16:02;25.02;;;13.57;;
73954;SDS011;62306;52.516;13.290;2023-01-30T01:18:30;25.80;;;12.90;;
73954;SDS011;62306;52.516;13.290;2023-01-30T01:20:57;23.63;;;12.68;;
73954;SDS011;62306;52.516;13.290;2023-01-30T01:23:24;24.58;;;12.40;;
73954;SDS011;62306;52.516;13.290;2023-01-30T01:25:51;29.27;;;14.38;;
73954;SDS011;62306;52.516;13.290;2023-01-30T01:28:18;26.10;;;12.52;;
73954;SDS011;62306;52.516;13.290;2023-01-30T01:30:46;24.55;;;13.05;;
73954;SDS011;62306;52.516;13.290;2023-01-30T01:33:13;25.58;;;12.32;;
73954;SDS011;62306;52.516;13.290;2023-01-30T01:35:42;23.60;;;12.32;;
73954;SDS011;62306;52.516;13.290;2023-01-30T01:38:09;25.00;;;13.63;;
73954;SDS011;62306;52.516;13.290;2023-01-30T01:40:36;24.90;;;13.70;;
73954;SDS011;62306;52.516;13.290;2023-01-30T01:43:22;27.48;;;13.20;;
73954;SDS011;62306;52.516;13.290;2023-01-30T01:45:51;26.33;;;13.93;;
73954;SDS011;62306;52.516;13.290;2023-01-30T01:50:54;26.52;;;13.00;;
73954;SDS011;62306;52.516;13.290;2023-01-30T01:53:25;26.80;;;12.60;;
73954;SDS011;62306;52.516;13.290;2023-01-30T01:55:56;25.73;;;13.20;;
73954;SDS011;62306;52.516;13.290;2023-01-30T01:58:26;25.35;;;13.65;;
73954;SDS011;62306;52.516;13.290;2023-01-30T02:00:59;28.48;;;13.43;;
73954;SDS011;62306;52.516;13.290;2023-01-30T02:03:27;30.27;;;13.93;;
73954;SDS011;62306;52.516;13.290;2023-01-30T02:06:00;35.42;;;17.92;;
73954;SDS011;62306;52.516;13.290;2023-01-30T02:08:30;30.58;;;15.05;;
73954;SDS011;62306;52.516;13.290;2023-01-30T02:11:02;31.08;;;14.90;;
73954;SDS011;62306;52.516;13.290;2023-01-30T02:13:33;35.90;;;15.65;;
73954;SDS011;62306;52.516;13.290;2023-01-30T02:16:01;28.50;;;15.38;;
73954;SDS011;62306;52.516;13.290;2023-01-30T02:18:29;31.75;;;15.65;;
73954;SDS011;62306;52.516;13.290;2023-01-30T02:21:04;33.17;;;14.88;;
73954;SDS011;62306;52.516;13.290;2023-01-30T02:23:52;32.40;;;16.05;;
73954;SDS011;62306;52.516;13.290;2023-01-30T02:26:52;30.33;;;15.80;;
73954;SDS011;62306;52.516;13.290;2023-01-30T02:29:38;31.95;;;14.93;;
73954;SDS011;62306;52.516;13.290;2023-01-30T02:32:45;28.48;;;14.35;;
73954;SDS011;62306;52.516;13.290;2023-01-30T02:35:23;32.40;;;15.95;;
73954;SDS011;62306;52.516;13.290;2023-01-30T02:38:01;29.83;;;15.25;;
73954;SDS011;62306;52.516;13.290;2023-01-30T02:40:42;30.67;;;15.25;;
73954;SDS011;62306;52.516;13.290;2023-01-30T02:43:21;30.40;;;16.05;;
73954;SDS011;62306;52.516;13.290;2023-01-30T02:45:53;31.50;;;15.30;;
73954;SDS011;62306;52.516;13.290;2023-01-30T02:48:28;30.92;;;14.65;;
73954;SDS011;62306;52.516;13.290;2023-01-30T02:51:02;30.00;;;15.10;;
73954;SDS011;62306;52.516;13.290;2023-01-30T02:53:32;33.53;;;16.70;;
73954;SDS011;62306;52.516;13.290;2023-01-30T02:56:00;32.78;;;16.23;;
73954;SDS011;62306;52.516;13.290;2023-01-30T02:58:28;34.95;;;17.00;;
73954;SDS011;62306;52.516;13.290;2023-01-30T03:01:14;33.92;;;16.25;;
73954;SDS011;62306;52.516;13.290;2023-01-30T03:04:04;35.05;;;16.25;;
73954;SDS011;62306;52.516;13.290;2023-01-30T03:06:54;31.52;;;16.05;;
73954;SDS011;62306;52.516;13.290;2023-01-30T03:09:36;30.90;;;15.27;;
73954;SDS011;62306;52.516;13.290;2023-01-30T03:12:14;32.97;;;15.05;;
73954;SDS011;62306;52.516;13.290;2023-01-30T03:14:45;31.15;;;15.48;;
73954;SDS011;62306;52.516;13.290;2023-01-30T03:17:17;28.08;;;15.15;;
73954;SDS011;62306;52.516;13.290;2023-01-30T03:19:49;32.20;;;15.80;;
73954;SDS011;62306;52.516;13.290;2023-01-30T03:22:16;27.17;;;14.05;;
73954;SDS011;62306;52.516;13.290;2023-01-30T03:24:45;31.90;;;14.23;;
73954;SDS011;62306;52.516;13.290;2023-01-30T03:27:12;29.80;;;14.30;;
73954;SDS011;62306;52.516;13.290;2023-01-30T03:29:39;30.48;;;16.27;;
73954;SDS011;62306;52.516;13.290;2023-01-30T03:32:06;31.77;;;15.60;;
73954;SDS011;62306;52.516;13.290;2023-01-30T03:34:33;28.63;;;15.02;;
73954;SDS011;62306;52.516;13.290;2023-01-30T03:37:01;27.25;;;14.23;;
73954;SDS011;62306;52.516;13.290;2023-01-30T03:39:29;28.52;;;14.93;;
73954;SDS011;62306;52.516;13.290;2023-01-30T03:41:56;29.02;;;15.02;;
73954;SDS011;62306;52.516;13.290;2023-01-30T03:44:23;27.90;;;14.40;;
73954;SDS011;62306;52.516;13.290;2023-01-30T03:46:50;29.50;;;15.27;;
73954;SDS011;62306;52.516;13.290;2023-01-30T03:49:17;29.55;;;15.40;;
73954;SDS011;62306;52.516;13.290;2023-01-30T03:51:44;27.20;;;14.55;;
73954;SDS011;62306;52.516;13.290;2023-01-30T03:54:12;26.83;;;15.13;;
73954;SDS011;62306;52.516;13.290;2023-01-30T03:56:39;27.63;;;14.55;;
73954;SDS011;62306;52.516;13.290;2023-01-30T03:59:06;29.38;;;15.07;;
73954;SDS011;62306;52.516;13.290;2023-01-30T04:01:33;29.00;;;14.52;;
73954;SDS011;62306;52.516;13.290;2023-01-30T04:04:00;29.75;;;15.40;;
73954;SDS011;62306;52.516;13.290;2023-01-30T04:06:27;29.08;;;15.00;;
73954;SDS011;62306;52.516;13.290;2023-01-30T04:08:54;31.48;;;15.27;;
73954;SDS011;62306;52.516;13.290;2023-01-30T04:11:22;27.73;;;14.15;;
73954;SDS011;62306;52.516;13.290;2023-01-30T04:13:49;28.98;;;14.25;;
73954;SDS011;62306;52.516;13.290;2023-01-30T04:16:17;31.17;;;14.95;;
73954;SDS011;62306;52.516;13.290;2023-01-30T04:18:45;27.20;;;14.25;;
73954;SDS011;62306;52.516;13.290;2023-01-30T04:21:12;30.25;;;15.50;;
73954;SDS011;62306;52.516;13.290;2023-01-30T04:23:39;26.48;;;14.02;;
73954;SDS011;62306;52.516;13.290;2023-01-30T04:26:07;26.30;;;14.35;;
73954;SDS011;62306;52.516;13.290;2023-01-30T04:28:35;27.02;;;13.32;;
73954;SDS011;62306;52.516;13.290;2023-01-30T04:31:02;28.25;;;13.50;;
73954;SDS011;62306;52.516;13.290;2023-01-30T04:33:30;32.58;;;15.57;;
73954;SDS011;62306;52.516;13.290;2023-01-30T04:35:59;28.75;;;14.25;;
73954;SDS011;62306;52.516;13.290;2023-01-30T04:38:27;28.45;;;13.70;;
73954;SDS011;62306;52.516;13.290;2023-01-30T04:40:56;28.67;;;13.98;;
73954;SDS011;62306;52.516;13.290;2023-01-30T04:43:24;26.98;;;14.23;;
73954;SDS011;62306;52.516;13.290;2023-01-30T04:45:53;26.83;;;13.80;;
73954;SDS011;62306;52.516;13.290;2023-01-30T04:48:20;29.13;;;14.15;;
73954;SDS011;62306;52.516;13.290;2023-01-30T04:50:49;29.48;;;15.57;;
73954;SDS011;62306;52.516;13.290;2023-01-30T04:53:17;28.95;;;15.20;;
73954;SDS011;62306;52.516;13.290;2023-01-30T04:55:45;29.20;;;14.88;;
73954;SDS011;62306;52.516;13.290;2023-01-30T04:58:12;27.65;;;15.35;;
73954;SDS011;62306;52.516;13.290;2023-01-30T05:00:39;26.20;;;14.25;;
73954;SDS011;62306;52.516;13.290;2023-01-30T05:03:08;30.52;;;14.27;;
73954;SDS011;62306;52.516;13.290;2023-01-30T05:05:34;29.98;;;15.38;;
73954;SDS011;62306;52.516;13.290;2023-01-30T05:08:01;30.52;;;15.23;;
73954;SDS011;62306;52.516;13.290;2023-01-30T05:10:29;32.63;;;15.38;;
73954;SDS011;62306;52.516;13.290;2023-01-30T05:12:55;42.85;;;21.33;;
73954;SDS011;62306;52.516;13.290;2023-01-30T05:15:26;40.83;;;20.40;;
73954;SDS011;62306;52.516;13.290;2023-01-30T05:17:53;34.53;;;15.20;;
73954;SDS011;62306;52.516;13.290;2023-01-30T05:20:21;35.38;;;16.20;;
73954;SDS011;62306;52.516;13.290;2023-01-30T05:22:48;34.25;;;15.90;;
73954;SDS011;62306;52.516;13.290;2023-01-30T05:25:15;34.20;;;15.85;;
73954;SDS011;62306;52.516;13.290;2023-01-30T05:27:42;37.13;;;17.83;;
73954;SDS011;62306;52.516;13.290;2023-01-30T05:30:09;36.35;;;16.27;;
73954;SDS011;62306;52.516;13.290;2023-01-30T05:32:36;33.65;;;15.77;;
73954;SDS011;62306;52.516;13.290;2023-01-30T05:35:04;40.08;;;17.63;;
73954;SDS011;62306;52.516;13.290;2023-01-30T05:37:33;32.80;;;15.85;;
73954;SDS011;62306;52.516;13.290;2023-01-30T05:40:01;33.28;;;16.55;;
73954;SDS011;62306;52.516;13.290;2023-01-30T05:42:29;38.85;;;17.42;;
73954;SDS011;62306;52.516;13.290;2023-01-30T05:44:56;36.28;;;16.80;;
73954;SDS011;62306;52.516;13.290;2023-01-30T05:47:23;34.17;;;16.30;;
73954;SDS011;62306;52.516;13.290;2023-01-30T05:49:49;35.30;;;16.23;;
73954;SDS011;62306;52.516;13.290;2023-01-30T05:52:16;34.50;;;16.77;;
73954;SDS011;62306;52.516;13.290;2023-01-30T05:54:45;34.17;;;16.45;;
73954;SDS011;62306;52.516;13.290;2023-01-30T05:57:11;30.92;;;15.52;;
73954;SDS011;62306;52.516;13.290;2023-01-30T05:59:38;40.55;;;20.15;;
73954;SDS011;62306;52.516;13.290;2023-01-30T06:02:05;45.55;;;24.50;;
73954;SDS011;62306;52.516;13.290;2023-01-30T06:04:32;34.72;;;16.27;;
73954;SDS011;62306;52.516;13.290;2023-01-30T06:06:59;37.08;;;16.50;;
73954;SDS011;62306;52.516;13.290;2023-01-30T06:09:26;44.72;;;18.67;;
73954;SDS011;62306;52.516;13.290;2023-01-30T06:11:54;33.88;;;15.50;;
73954;SDS011;62306;52.516;13.290;2023-01-30T06:14:21;38.22;;;16.58;;
73954;SDS011;62306;52.516;13.290;2023-01-30T06:16:48;34.13;;;17.52;;
73954;SDS011;62306;52.516;13.290;2023-01-30T06:19:15;35.30;;;16.08;;
73954;SDS011;62306;52.516;13.290;2023-01-30T06:21:42;34.85;;;16.83;;
73954;SDS011;62306;52.516;13.290;2023-01-30T06:24:09;32.17;;;15.32;;
73954;SDS011;62306;52.516;13.290;2023-01-30T06:26:36;27.55;;;13.98;;
73954;SDS011;62306;52.516;13.290;2023-01-30T06:29:04;33.20;;;14.98;;
73954;SDS011;62306;52.516;13.290;2023-01-30T06:31:31;36.40;;;18.15;;
73954;SDS011;62306;52.516;13.290;2023-01-30T06:33:58;31.33;;;15.75;;
73954;SDS011;62306;52.516;13.290;2023-01-30T06:36:25;26.42;;;14.32;;
73954;SDS011;62306;52.516;13.290;2023-01-30T06:38:52;33.58;;;16.25;;
73954;SDS011;62306;52.516;13.290;2023-01-30T06:41:18;31.77;;;13.85;;
73954;SDS011;62306;52.516;13.290;2023-01-30T06:43:45;27.13;;;13.35;;
73954;SDS011;62306;52.516;13.290;2023-01-30T06:46:14;27.98;;;14.18;;
73954;SDS011;62306;52.516;13.290;2023-01-30T06:48:41;28.45;;;14.02;;
73954;SDS011;62306;52.516;13.290;2023-01-30T06:51:08;25.55;;;13.73;;
73954;SDS011;62306;52.516;13.290;2023-01-30T06:53:34;26.60;;;13.70;;
73954;SDS011;62306;52.516;13.290;2023-01-30T06:56:01;28.58;;;12.93;;
73954;SDS011;62306;52.516;13.290;2023-01-30T06:58:29;24.08;;;13.15;;
73954;SDS011;62306;52.516;13.290;2023-01-30T07:00:56;26.38;;;13.43;;
73954;SDS011;62306;52.516;13.290;2023-01-30T07:03:24;23.42;;;12.50;;
73954;SDS011;62306;52.516;13.290;2023-01-30T07:05:51;20.40;;;11.73;;
73954;SDS011;62306;52.516;13.290;2023-01-30T07:08:18;25.13;;;13.73;;
73954;SDS011;62306;52.516;13.290;2023-01-30T07:10:45;21.95;;;11.68;;
73954;SDS011;62306;52.516;13.290;2023-01-30T07:13:12;22.13;;;11.75;;
73954;SDS011;62306;52.516;13.290;2023-01-30T07:15:39;23.55;;;12.35;;
73954;SDS011;62306;52.516;13.290;2023-01-30T07:18:06;27.58;;;12.40;;
73954;SDS011;62306;52.516;13.290;2023-01-30T07:20:34;28.95;;;11.38;;
73954;SDS011;62306;52.516;13.290;2023-01-30T07:23:02;20.02;;;11.85;;
73954;SDS011;62306;52.516;13.290;2023-01-30T07:25:29;20.73;;;11.00;;
73954;SDS011;62306;52.516;13.290;2023-01-30T07:27:56;19.88;;;10.98;;
73954;SDS011;62306;52.516;13.290;2023-01-30T07:30:24;18.40;;;10.88;;
73954;SDS011;62306;52.516;13.290;2023-01-30T07:32:53;18.50;;;9.77;;
73954;SDS011;62306;52.516;13.290;2023-01-30T07:35:21;15.88;;;9.35;;
73954;SDS011;62306;52.516;13.290;2023-01-30T07:37:51;17.95;;;9.40;;
73954;SDS011;62306;52.516;13.290;2023-01-30T07:40:18;18.58;;;9.13;;
73954;SDS011;62306;52.516;13.290;2023-01-30T07:42:54;15.68;;;8.07;;
73954;SDS011;62306;52.516;13.290;2023-01-30T07:45:22;18.13;;;9.68;;
73954;SDS011;62306;52.516;13.290;2023-01-30T07:47:49;17.80;;;8.82;;
73954;SDS011;62306;52.516;13.290;2023-01-30T07:50:16;15.88;;;9.27;;
73954;SDS011;62306;52.516;13.290;2023-01-30T07:52:43;17.92;;;8.63;;
73954;SDS011;62306;52.516;13.290;2023-01-30T07:55:11;16.25;;;8.43;;
73954;SDS011;62306;52.516;13.290;2023-01-30T07:57:38;16.73;;;8.05;;
73954;SDS011;62306;52.516;13.290;2023-01-30T08:00:07;15.75;;;8.88;;
73954;SDS011;62306;52.516;13.290;2023-01-30T08:02:36;15.95;;;8.85;;
73954;SDS011;62306;52.516;13.290;2023-01-30T08:05:03;14.55;;;8.27;;
73954;SDS011;62306;52.516;13.290;2023-01-30T08:07:30;17.38;;;8.75;;
73954;SDS011;62306;52.516;13.290;2023-01-30T08:09:57;14.25;;;7.47;;
73954;SDS011;62306;52.516;13.290;2023-01-30T08:12:26;13.90;;;8.65;;
73954;SDS011;62306;52.516;13.290;2023-01-30T08:14:53;16.17;;;8.18;;
73954;SDS011;62306;52.516;13.290;2023-01-30T08:17:20;14.23;;;8.45;;
73954;SDS011;62306;52.516;13.290;2023-01-30T08:19:47;14.40;;;8.38;;
73954;SDS011;62306;52.516;13.290;2023-01-30T08:22:14;12.23;;;7.20;;
73954;SDS011;62306;52.516;13.290;2023-01-30T08:24:41;14.50;;;7.40;;
73954;SDS011;62306;52.516;13.290;2023-01-30T08:27:07;11.55;;;6.80;;
73954;SDS011;62306;52.516;13.290;2023-01-30T08:29:36;12.52;;;7.25;;
73954;SDS011;62306;52.516;13.290;2023-01-30T08:32:03;17.75;;;7.82;;
73954;SDS011;62306;52.516;13.290;2023-01-30T08:34:30;11.05;;;7.35;;
73954;SDS011;62306;52.516;13.290;2023-01-30T08:36:57;12.90;;;6.30;;
73954;SDS011;62306;52.516;13.290;2023-01-30T08:39:24;11.27;;;6.20;;
73954;SDS011;62306;52.516;13.290;2023-01-30T08:41:51;11.90;;;6.63;;
73954;SDS011;62306;52.516;13.290;2023-01-30T08:44:18;9.43;;;6.35;;
73954;SDS011;62306;52.516;13.290;2023-01-30T08:46:46;13.32;;;7.22;;
73954;SDS011;62306;52.516;13.290;2023-01-30T08:49:13;10.93;;;5.55;;
73954;SDS011;62306;52.516;13.290;2023-01-30T08:51:40;10.27;;;5.03;;
73954;SDS011;62306;52.516;13.290;2023-01-30T08:54:07;12.43;;;5.75;;
73954;SDS011;62306;52.516;13.290;2023-01-30T08:56:34;9.38;;;5.68;;
73954;SDS011;62306;52.516;13.290;2023-01-30T08:59:01;12.40;;;7.28;;
73954;SDS011;62306;52.516;13.290;2023-01-30T09:01:28;8.68;;;5.22;;
73954;SDS011;62306;52.516;13.290;2023-01-30T09:03:56;10.57;;;5.72;;
73954;SDS011;62306;52.516;13.290;2023-01-30T09:06:23;10.50;;;4.72;;
73954;SDS011;62306;52.516;13.290;2023-01-30T09:08:50;10.43;;;5.60;;
73954;SDS011;62306;52.516;13.290;2023-01-30T09:11:17;7.75;;;4.50;;
73954;SDS011;62306;52.516;13.290;2023-01-30T09:13:44;11.73;;;4.70;;
73954;SDS011;62306;52.516;13.290;2023-01-30T09:16:11;7.53;;;3.97;;
73954;SDS011;62306;52.516;13.290;2023-01-30T09:18:38;8.60;;;4.22;;
73954;SDS011;62306;52.516;13.290;2023-01-30T09:21:07;6.50;;;4.30;;
73954;SDS011;62306;52.516;13.290;2023-01-30T09:23:36;8.40;;;4.40;;
73954;SDS011;62306;52.516;13.290;2023-01-30T09:26:04;7.20;;;4.30;;
73954;SDS011;62306;52.516;13.290;2023-01-30T09:28:31;5.30;;;3.28;;
73954;SDS011;62306;52.516;13.290;2023-01-30T09:30:59;4.85;;;3.40;;
73954;SDS011;62306;52.516;13.290;2023-01-30T09:33:27;8.75;;;3.45;;
73954;SDS011;62306;52.516;13.290;2023-01-30T09:35:54;7.57;;;3.50;;
73954;SDS011;62306;52.516;13.290;2023-01-30T09:38:22;5.05;;;2.90;;
73954;SDS011;62306;52.516;13.290;2023-01-30T09:40:53;6.00;;;3.00;;
73954;SDS011;62306;52.516;13.290;2023-01-30T09:46:26;8.43;;;2.88;;
73954;SDS011;62306;52.516;13.290;2023-01-30T09:49:01;10.10;;;2.65;;
73954;SDS011;62306;52.516;13.290;2023-01-30T09:51:42;8.82;;;2.58;;
73954;SDS011;62306;52.516;13.290;2023-01-30T09:54:18;9.18;;;2.47;;
73954;SDS011;62306;52.516;13.290;2023-01-30T09:56:53;4.88;;;2.13;;
73954;SDS011;62306;52.516;13.290;2023-01-30T09:59:24;7.80;;;2.55;;
73954;SDS011;62306;52.516;13.290;2023-01-30T10:01:57;6.95;;;2.40;;
73954;SDS011;62306;52.516;13.290;2023-01-30T10:04:32;6.93;;;2.15;;
73954;SDS011;62306;52.516;13.290;2023-01-30T10:07:02;12.07;;;2.05;;
73954;SDS011;62306;52.516;13.290;2023-01-30T10:09:41;8.23;;;2.22;;
73954;SDS011;62306;52.516;13.290;2023-01-30T10:12:29;7.47;;;1.75;;
73954;SDS011;62306;52.516;13.290;2023-01-30T10:15:13;7.45;;;2.08;;
73954;SDS011;62306;52.516;13.290;2023-01-30T10:17:52;12.30;;;1.90;;
73954;SDS011;62306;52.516;13.290;2023-01-30T10:20:34;15.70;;;2.35;;
73954;SDS011;62306;52.516;13.290;2023-01-30T10:23:28;11.02;;;1.95;;
73954;SDS011;62306;52.516;13.290;2023-01-30T10:26:10;12.80;;;1.90;;
73954;SDS011;62306;52.516;13.290;2023-01-30T10:28:40;17.02;;;2.25;;
73954;SDS011;62306;52.516;13.290;2023-01-30T10:31:21;10.02;;;2.38;;
73954;SDS011;62306;52.516;13.290;2023-01-30T10:33:53;22.73;;;3.53;;
73954;SDS011;62306;52.516;13.290;2023-01-30T10:36:24;19.13;;;2.40;;
73954;SDS011;62306;52.516;13.290;2023-01-30T10:38:58;15.68;;;2.90;;
73954;SDS011;62306;52.516;13.290;2023-01-30T10:41:30;12.07;;;2.67;;
73954;SDS011;62306;52.516;13.290;2023-01-30T10:44:02;13.80;;;2.03;;
73954;SDS011;62306;52.516;13.290;2023-01-30T10:49:25;24.77;;;3.55;;
73954;SDS011;62306;52.516;13.290;2023-01-30T10:51:59;15.20;;;2.30;;
73954;SDS011;62306;52.516;13.290;2023-01-30T10:54:46;10.55;;;2.03;;
73954;SDS011;62306;52.516;13.290;2023-01-30T10:57:28;22.50;;;2.90;;
73954;SDS011;62306;52.516;13.290;2023-01-30T11:00:05;17.00;;;2.28;;
73954;SDS011;62306;52.516;13.290;2023-01-30T11:02:44;16.80;;;2.45;;
73954;SDS011;62306;52.516;13.290;2023-01-30T11:05:21;21.67;;;3.30;;
73954;SDS011;62306;52.516;13.290;2023-01-30T11:07:50;20.02;;;3.30;;
73954;SDS011;62306;52.516;13.290;2023-01-30T11:10:18;11.60;;;2.47;;
73954;SDS011;62306;52.516;13.290;2023-01-30T11:12:48;15.75;;;2.40;;
73954;SDS011;62306;52.516;13.290;2023-01-30T11:15:19;16.15;;;2.35;;
73954;SDS011;62306;52.516;13.290;2023-01-30T11:17:48;15.15;;;2.67;;
73954;SDS011;62306;52.516;13.290;2023-01-30T11:20:16;15.25;;;2.53;;
73954;SDS011;62306;52.516;13.290;2023-01-30T11:22:46;13.95;;;2.38;;
73954;SDS011;62306;52.516;13.290;2023-01-30T11:25:15;14.13;;;2.40;;
73954;SDS011;62306;52.516;13.290;2023-01-30T11:27:50;16.48;;;2.33;;
73954;SDS011;62306;52.516;13.290;2023-01-30T11:30:20;22.20;;;3.97;;
73954;SDS011;62306;52.516;13.290;2023-01-30T11:32:52;21.45;;;3.15;;
73954;SDS011;62306;52.516;13.290;2023-01-30T11:35:31;16.83;;;2.63;;
73954;SDS011;62306;52.516;13.290;2023-01-30T11:38:09;15.73;;;2.20;;
73954;SDS011;62306;52.516;13.290;2023-01-30T11:40:38;14.63;;;2.60;;
73954;SDS011;62306;52.516;13.290;2023-01-30T11:43:10;19.55;;;2.97;;
73954;SDS011;62306;52.516;13.290;2023-01-30T11:48:10;17.88;;;2.25;;
73954;SDS011;62306;52.516;13.290;2023-01-30T11:50:41;23.75;;;3.40;;
73954;SDS011;62306;52.516;13.290;2023-01-30T11:53:14;27.60;;;3.08;;
73954;SDS011;62306;52.516;13.290;2023-01-30T11:55:46;24.63;;;3.25;;
73954;SDS011;62306;52.516;13.290;2023-01-30T11:58:15;21.90;;;3.30;;
73954;SDS011;62306;52.516;13.290;2023-01-30T12:00:45;14.70;;;2.58;;
73954;SDS011;62306;52.516;13.290;2023-01-30T12:03:15;13.15;;;2.58;;
73954;SDS011;62306;52.516;13.290;2023-01-30T12:05:44;12.30;;;2.78;;
73954;SDS011;62306;52.516;13.290;2023-01-30T12:08:13;18.65;;;2.20;;
73954;SDS011;62306;52.516;13.290;2023-01-30T12:10:50;8.88;;;2.00;;
73954;SDS011;62306;52.516;13.290;2023-01-30T12:13:22;18.13;;;3.22;;
73954;SDS011;62306;52.516;13.290;2023-01-30T12:15:55;12.50;;;2.42;;
73954;SDS011;62306;52.516;13.290;2023-01-30T12:18:30;15.95;;;2.58;;
73954;SDS011;62306;52.516;13.290;2023-01-30T12:21:02;16.60;;;2.85;;
73954;SDS011;62306;52.516;13.290;2023-01-30T12:23:39;15.82;;;2.80;;
73954;SDS011;62306;52.516;13.290;2023-01-30T12:26:11;21.45;;;3.03;;
73954;SDS011;62306;52.516;13.290;2023-01-30T12:28:42;16.38;;;2.97;;
73954;SDS011;62306;52.516;13.290;2023-01-30T12:31:15;20.83;;;3.20;;
73954;SDS011;62306;52.516;13.290;2023-01-30T12:33:47;16.65;;;2.47;;
73954;SDS011;62306;52.516;13.290;2023-01-30T12:36:17;18.98;;;3.00;;
73954;SDS011;62306;52.516;13.290;2023-01-30T12:38:56;16.55;;;2.88;;
73954;SDS011;62306;52.516;13.290;2023-01-30T12:41:36;17.58;;;2.65;;
73954;SDS011;62306;52.516;13.290;2023-01-30T12:44:20;17.40;;;2.95;;
73954;SDS011;62306;52.516;13.290;2023-01-30T12:46:57;17.83;;;2.90;;
73954;SDS011;62306;52.516;13.290;2023-01-30T12:49:49;13.50;;;2.05;;
73954;SDS011;62306;52.516;13.290;2023-01-30T12:52:35;19.98;;;2.28;;
73954;SDS011;62306;52.516;13.290;2023-01-30T12:55:23;17.90;;;2.58;;
73954;SDS011;62306;52.516;13.290;2023-01-30T12:57:58;17.48;;;2.85;;
73954;SDS011;62306;52.516;13.290;2023-01-30T13:00:31;16.92;;;2.22;;
73954;SDS011;62306;52.516;13.290;2023-01-30T13:03:16;14.48;;;2.17;;
73954;SDS011;62306;52.516;13.290;2023-01-30T13:05:50;12.65;;;2.10;;
73954;SDS011;62306;52.516;13.290;2023-01-30T13:11:28;9.05;;;1.50;;
73954;SDS011;62306;52.516;13.290;2023-01-30T13:14:15;15.68;;;3.13;;
73954;SDS011;62306;52.516;13.290;2023-01-30T13:16:56;16.10;;;2.10;;
73954;SDS011;62306;52.516;13.290;2023-01-30T13:19:32;12.90;;;2.45;;
73954;SDS011;62306;52.516;13.290;2023-01-30T13:22:07;13.57;;;2.25;;
73954;SDS011;62306;52.516;13.290;2023-01-30T13:24:42;9.25;;;1.75;;
73954;SDS011;62306;52.516;13.290;2023-01-30T13:27:18;15.45;;;2.15;;
73954;SDS011;62306;52.516;13.290;2023-01-30T13:29:47;9.02;;;2.20;;
73954;SDS011;62306;52.516;13.290;2023-01-30T13:32:17;10.02;;;2.67;;
73954;SDS011;62306;52.516;13.290;2023-01-30T13:34:52;11.88;;;1.73;;
73954;SDS011;62306;52.516;13.290;2023-01-30T13:37:21;15.82;;;2.30;;
73954;SDS011;62306;52.516;13.290;2023-01-30T13:39:49;13.38;;;2.47;;
73954;SDS011;62306;52.516;13.290;2023-01-30T13:42:23;19.60;;;2.45;;
73954;SDS011;62306;52.516;13.290;2023-01-30T13:44:55;7.57;;;1.73;;
73954;SDS011;62306;52.516;13.290;2023-01-30T13:47:29;20.92;;;2.45;;
73954;SDS011;62306;52.516;13.290;2023-01-30T13:50:11;17.33;;;3.05;;
73954;SDS011;62306;52.516;13.290;2023-01-30T13:52:50;14.73;;;2.92;;
73954;SDS011;62306;52.516;13.290;2023-01-30T13:55:24;22.17;;;2.65;;
73954;SDS011;62306;52.516;13.290;2023-01-30T13:57:58;21.67;;;2.42;;
73954;SDS011;62306;52.516;13.290;2023-01-30T14:00:35;11.65;;;2.53;;
73954;SDS011;62306;52.516;13.290;2023-01-30T14:03:14;21.27;;;3.03;;
73954;SDS011;62306;52.516;13.290;2023-01-30T14:09:02;14.30;;;2.40;;
73954;SDS011;62306;52.516;13.290;2023-01-30T14:11:45;14.95;;;2.40;;
73954;SDS011;62306;52.516;13.290;2023-01-30T14:14:27;20.90;;;2.88;;
73954;SDS011;62306;52.516;13.290;2023-01-30T14:16:57;13.10;;;2.38;;
73954;SDS011;62306;52.516;13.290;2023-01-30T14:19:40;19.70;;;6.95;;
73954;SDS011;62306;52.516;13.290;2023-01-30T14:22:22;14.73;;;2.53;;
73954;SDS011;62306;52.516;13.290;2023-01-30T14:27:52;6.00;;;1.35;;
73954;SDS011;62306;52.516;13.290;2023-01-30T14:30:36;8.55;;;1.73;;
73954;SDS011;62306;52.516;13.290;2023-01-30T14:42:18;1.70;;;0.70;;
73954;SDS011;62306;52.516;13.290;2023-01-30T14:45:00;1.98;;;0.88;;
73954;SDS011;62306;52.516;13.290;2023-01-30T14:47:29;3.50;;;0.73;;
73954;SDS011;62306;52.516;13.290;2023-01-30T14:49:57;1.42;;;0.90;;
73954;SDS011;62306;52.516;13.290;2023-01-30T14:52:35;2.05;;;0.68;;
73954;SDS011;62306;52.516;13.290;2023-01-30T14:55:04;1.23;;;0.70;;
73954;SDS011;62306;52.516;13.290;2023-01-30T14:57:46;3.92;;;1.75;;
73954;SDS011;62306;52.516;13.290;2023-01-30T15:00:19;8.38;;;1.10;;
73954;SDS011;62306;52.516;13.290;2023-01-30T15:02:51;5.17;;;1.23;;
73954;SDS011;62306;52.516;13.290;2023-01-30T15:05:24;9.48;;;2.28;;
73954;SDS011;62306;52.516;13.290;2023-01-30T15:08:05;7.13;;;1.50;;